Time;durP1;ratioP1;P1;durP2;ratioP2;P2;SDS_P1;SDS_P2;PMS_P1;PMS_P2;Temp;Humidity;BMP_temperature;BMP_pressure;BME280_temperature;BME280_humidity;BME280_pressure;Samples;Min_cycle;Max_cycle;Signal;HPM_P1;HPM_P2
2023/07/02 00:00:10;;;;;;;0.40;0.25;;;20.30;71.70;;;;;;5091959;28;20056;-81
2023/07/02 00:02:37;;;;;;;0.93;0.75;;;20.30;71.40;;;;;;5093787;28;20039;-88
2023/07/02 00:05:04;;;;;;;0.57;0.28;;;20.40;71.40;;;;;;5093635;28;20103;-87
2023/07/02 00:07:30;;;;;;;1.00;0.50;;;20.40;71.30;;;;;;5075717;28;20028;-87
2023/07/02 00:09:57;;;;;;;1.67;0.82;;;20.40;71.40;;;;;;5093573;28;20048;-80
2023/07/02 00:12:23;;;;;;;0.55;0.50;;;20.30;71.40;;;;;;5075162;28;20046;-81
2023/07/02 00:14:52;;;;;;;;;;;20.40;71.60;;;;;;5092748;28;20063;-81
2023/07/02 00:17:19;;;;;;;1.65;0.77;;;20.40;71.60;;;;;;5091991;28;19926;-80
2023/07/02 00:19:46;;;;;;;1.73;1.00;;;20.40;71.40;;;;;;5092222;28;20028;-81
2023/07/02 00:22:12;;;;;;;1.95;0.95;;;20.40;71.60;;;;;;5092363;28;20031;-81
2023/07/02 00:24:38;;;;;;;1.60;0.95;;;20.40;71.60;;;;;;5091925;28;20442;-81
2023/07/02 00:27:04;;;;;;;;;;;20.40;71.60;;;;;;5075719;28;20032;-87
2023/07/02 00:29:30;;;;;;;1.10;0.45;;;20.40;71.60;;;;;;5092488;28;19916;-81
2023/07/02 00:31:56;;;;;;;;;;;20.40;71.50;;;;;;5075633;28;20039;-81
2023/07/02 00:34:23;;;;;;;1.25;0.77;;;20.40;71.70;;;;;;5092212;28;19951;-81
2023/07/02 00:36:49;;;;;;;1.67;0.95;;;20.40;71.60;;;;;;5091892;28;20043;-86
2023/07/02 00:39:17;;;;;;;;;;;20.40;71.50;;;;;;5092593;28;20032;-81
2023/07/02 00:41:46;;;;;;;1.00;0.82;;;20.40;71.60;;;;;;5091940;28;19969;-85
2023/07/02 00:44:13;;;;;;;0.68;0.68;;;20.40;71.40;;;;;;5092229;28;20392;-80
2023/07/02 00:46:39;;;;;;;1.00;0.70;;;20.40;71.60;;;;;;5092925;28;20040;-87
2023/07/02 00:49:06;;;;;;;0.88;0.55;;;20.40;71.80;;;;;;5092280;28;20088;-88
2023/07/02 00:51:32;;;;;;;1.63;1.27;;;20.40;71.60;;;;;;5091923;28;20077;-88
2023/07/02 00:53:58;;;;;;;;;;;20.30;71.70;;;;;;5092964;28;20028;-88
2023/07/02 00:56:26;;;;;;;1.80;1.03;;;20.30;71.70;;;;;;5075041;28;19916;-88
2023/07/02 00:58:58;;;;;;;3.95;1.30;;;20.30;71.50;;;;;;5075334;28;20066;-88
2023/07/02 01:01:28;;;;;;;0.88;0.73;;;20.30;71.50;;;;;;5075126;28;20400;-87
2023/07/02 01:04:12;;;;;;;1.95;1.05;;;20.30;71.50;;;;;;5075472;28;20037;-87
2023/07/02 01:12:10;;;;;;;1.45;1.02;;;20.20;71.60;;;;;;5091990;28;20181;-86
2023/07/02 01:14:57;;;;;;;0.40;0.40;;;20.20;71.30;;;;;;5092986;28;20032;-81
2023/07/02 01:17:24;;;;;;;2.03;1.23;;;20.20;71.70;;;;;;5091368;28;20374;-88
2023/07/02 01:20:10;;;;;;;1.98;0.60;;;20.30;71.20;;;;;;5091948;28;20028;-82
2023/07/02 01:22:37;;;;;;;0.88;0.63;;;20.30;71.80;;;;;;5091843;28;20496;-81
2023/07/02 01:25:03;;;;;;;0.43;0.43;;;20.20;71.60;;;;;;5078322;28;20032;-87
2023/07/02 01:27:30;;;;;;;2.17;1.23;;;20.20;71.20;;;;;;5095508;28;20028;-81
2023/07/02 01:29:56;;;;;;;1.35;0.88;;;20.20;71.30;;;;;;5095671;28;20035;-81
2023/07/02 01:32:23;;;;;;;2.22;1.10;;;20.20;72.00;;;;;;5096662;28;20477;-80
2023/07/02 01:34:53;;;;;;;1.30;0.55;;;20.10;72.10;;;;;;5095197;28;20040;-89
2023/07/02 01:37:19;;;;;;;1.00;0.63;;;20.10;72.00;;;;;;5078784;28;20488;-87
2023/07/02 01:39:45;;;;;;;0.20;0.20;;;20.10;72.10;;;;;;5096543;28;20131;-81
2023/07/02 01:42:15;;;;;;;;;;;20.10;71.90;;;;;;5079261;28;20036;-82
2023/07/02 01:44:42;;;;;;;0.80;0.60;;;20.10;71.90;;;;;;5079301;28;19946;-88
2023/07/02 01:47:08;;;;;;;2.50;1.55;;;20.10;71.70;;;;;;5095064;28;20024;-81
2023/07/02 01:49:36;;;;;;;8.57;0.80;;;20.10;71.90;;;;;;5094995;28;20508;-88
2023/07/02 01:52:03;;;;;;;1.77;1.25;;;20.10;71.90;;;;;;5077828;28;20032;-89
2023/07/02 01:54:30;;;;;;;0.98;0.68;;;20.10;71.30;;;;;;5095364;28;20033;-89
2023/07/02 01:56:57;;;;;;;1.65;0.55;;;20.20;71.80;;;;;;5094988;28;20035;-88
2023/07/02 01:59:23;;;;;;;2.65;1.55;;;20.10;71.30;;;;;;5078248;28;20540;-88
2023/07/02 02:01:49;;;;;;;1.10;0.52;;;20.10;72.10;;;;;;5094913;28;20032;-81
2023/07/02 02:04:15;;;;;;;;;;;20.10;72.10;;;;;;5095512;28;20047;-82
2023/07/02 02:06:42;;;;;;;2.70;1.95;;;20.10;71.40;;;;;;5094491;28;19916;-82
2023/07/02 02:09:09;;;;;;;1.70;1.27;;;20.10;71.80;;;;;;5077575;28;20075;-80
2023/07/02 02:11:56;;;;;;;1.17;0.80;;;20.10;71.90;;;;;;5094487;28;20063;-89
2023/07/02 02:14:22;;;;;;;1.00;0.88;;;20.10;71.90;;;;;;5077891;28;20043;-88
2023/07/02 02:16:48;;;;;;;1.35;1.00;;;20.20;72.10;;;;;;5077640;28;20036;-82
2023/07/02 02:19:15;;;;;;;0.95;0.77;;;20.10;71.90;;;;;;5095754;28;20032;-81
2023/07/02 02:21:42;;;;;;;1.90;0.90;;;20.10;71.90;;;;;;5077301;28;20050;-89
2023/07/02 02:24:08;;;;;;;1.45;0.85;;;20.10;71.80;;;;;;5078166;28;20055;-81
2023/07/02 02:26:35;;;;;;;;;;;20.10;72.00;;;;;;5094744;28;20544;-88
2023/07/02 02:29:01;;;;;;;1.05;0.68;;;20.10;71.90;;;;;;5077688;28;19983;-89
2023/07/02 02:31:28;;;;;;;4.53;0.82;;;20.10;72.00;;;;;;5095066;28;20036;-90
2023/07/02 02:33:54;;;;;;;1.02;0.60;;;20.10;71.40;;;;;;5077539;28;20024;-81
2023/07/02 02:36:20;;;;;;;;;;;20.10;71.90;;;;;;5076242;28;20043;-81
2023/07/02 02:38:46;;;;;;;0.38;0.38;;;20.10;71.90;;;;;;5094273;28;19916;-90
2023/07/02 02:41:12;;;;;;;1.67;0.30;;;20.10;71.80;;;;;;5094131;28;20059;-81
2023/07/02 02:43:42;;;;;;;;;;;20.10;71.90;;;;;;5077787;28;20168;-82
2023/07/02 02:46:28;;;;;;;2.47;0.55;;;20.10;71.80;;;;;;5093858;28;19992;-85
2023/07/02 02:48:54;;;;;;;1.92;0.85;;;20.00;71.90;;;;;;5095461;28;20443;-82
2023/07/02 02:51:20;;;;;;;;;;;20.00;72.10;;;;;;5094380;28;20381;-82
2023/07/02 02:53:46;;;;;;;0.77;0.65;;;20.10;72.10;;;;;;5077004;28;19981;-91
2023/07/02 02:56:12;;;;;;;;;;;20.10;72.00;;;;;;5077286;28;20024;-80
2023/07/02 02:58:39;;;;;;;0.85;0.43;;;20.10;72.10;;;;;;5077153;28;19920;-89
2023/07/02 03:01:10;;;;;;;0.80;0.57;;;20.10;72.10;;;;;;5076468;28;20055;-90
2023/07/02 03:03:54;;;;;;;0.70;0.52;;;20.00;72.40;;;;;;5093822;28;20545;-90
2023/07/02 03:06:20;;;;;;;0.82;0.60;;;20.00;72.80;;;;;;5094945;28;20032;-81
2023/07/02 03:08:46;;;;;;;1.00;0.40;;;19.90;73.20;;;;;;5094630;28;20039;-90
2023/07/02 03:11:12;;;;;;;;;;;19.90;73.30;;;;;;5076912;28;20045;-81
2023/07/02 03:13:38;;;;;;;3.10;1.27;;;19.90;73.10;;;;;;5093412;28;19916;-89
2023/07/02 03:16:05;;;;;;;;;;;19.90;73.00;;;;;;5093854;28;20040;-89
2023/07/02 03:18:34;;;;;;;6.03;0.75;;;19.90;72.80;;;;;;5093800;28;19924;-89
2023/07/02 03:21:00;;;;;;;1.17;0.77;;;19.90;72.20;;;;;;5076541;28;20040;-90
2023/07/02 03:23:26;;;;;;;1.23;0.85;;;19.90;72.50;;;;;;5093637;28;20046;-89
2023/07/02 03:25:52;;;;;;;;;;;19.90;73.20;;;;;;5093484;28;20058;-90
2023/07/02 03:28:19;;;;;;;1.92;1.33;;;19.90;72.90;;;;;;5093417;28;19920;-82
2023/07/02 03:30:45;;;;;;;1.77;0.68;;;19.90;72.90;;;;;;5092744;28;20028;-88
2023/07/02 03:33:11;;;;;;;;;;;19.90;72.90;;;;;;5093821;28;20085;-89
2023/07/02 03:35:37;;;;;;;2.10;1.05;;;19.90;72.90;;;;;;5092968;28;19916;-82
2023/07/02 03:38:05;;;;;;;1.10;0.85;;;20.00;72.60;;;;;;5094789;28;20039;-80
2023/07/02 03:40:32;;;;;;;0.55;0.30;;;20.00;72.50;;;;;;5075843;28;20139;-80
2023/07/02 03:42:58;;;;;;;2.78;1.95;;;20.00;71.90;;;;;;5093322;28;20062;-81
2023/07/02 03:45:24;;;;;;;1.90;0.52;;;20.00;72.50;;;;;;5092425;28;20039;-88
2023/07/02 03:47:50;;;;;;;;;;;20.10;72.40;;;;;;5094343;28;20082;-87
2023/07/02 03:50:16;;;;;;;1.35;0.80;;;20.10;72.50;;;;;;5075823;28;19911;-81
2023/07/02 03:52:42;;;;;;;1.77;1.25;;;20.10;72.30;;;;;;5076010;28;20039;-86
2023/07/02 03:55:08;;;;;;;;;;;20.10;72.30;;;;;;5076051;28;20115;-87
2023/07/02 03:57:34;;;;;;;2.47;0.95;;;20.20;71.70;;;;;;5075948;28;20421;-81
2023/07/02 04:00:00;;;;;;;;;;;20.20;72.20;;;;;;5093114;28;20531;-82
2023/07/02 04:02:26;;;;;;;0.77;0.45;;;20.20;72.20;;;;;;5092247;28;19916;-81
2023/07/02 04:04:52;;;;;;;;;;;20.20;72.20;;;;;;5076358;28;20118;-87
2023/07/02 04:07:18;;;;;;;0.80;0.60;;;20.20;72.30;;;;;;5092377;28;19967;-81
2023/07/02 04:09:44;;;;;;;;;;;20.20;72.00;;;;;;5092823;28;20066;-82
2023/07/02 04:12:10;;;;;;;0.32;0.30;;;20.30;73.30;;;;;;5092396;28;19915;-88
2023/07/02 04:14:36;;;;;;;;;;;20.30;72.30;;;;;;5076161;28;20115;-82
2023/07/02 04:19:47;;;;;;;1.77;0.68;;;20.30;72.10;;;;;;5093603;28;20043;-88
2023/07/02 04:22:13;;;;;;;;;;;20.40;72.00;;;;;;5094136;28;20028;-81
2023/07/02 04:24:39;;;;;;;0.47;0.45;;;20.40;72.10;;;;;;5075400;28;19923;-87
2023/07/02 04:27:05;;;;;;;1.30;1.23;;;20.40;71.90;;;;;;5075321;28;20024;-87
2023/07/02 04:29:31;;;;;;;1.55;0.90;;;20.50;71.30;;;;;;5092210;28;20036;-81
2023/07/02 04:31:57;;;;;;;;;;;20.50;71.80;;;;;;5093941;28;20039;-82
2023/07/02 04:34:23;;;;;;;0.95;0.65;;;20.60;71.90;;;;;;5091884;28;19916;-81
2023/07/02 04:36:49;;;;;;;2.22;1.10;;;20.60;71.40;;;;;;5074821;28;20392;-87
2023/07/02 04:39:15;;;;;;;;;;;20.70;71.60;;;;;;5092957;28;20036;-87
2023/07/02 04:41:41;;;;;;;1.40;0.82;;;20.70;71.70;;;;;;5091939;28;19927;-81
2023/07/02 04:44:08;;;;;;;1.33;0.90;;;20.80;71.40;;;;;;5092128;28;20040;-82
2023/07/02 04:46:34;;;;;;;1.08;0.88;;;20.80;71.40;;;;;;5075053;28;20081;-82
2023/07/02 04:49:00;;;;;;;1.27;0.80;;;20.80;71.40;;;;;;5092063;28;20439;-81
2023/07/02 04:51:26;;;;;;;3.80;1.65;;;20.80;71.70;;;;;;5091733;28;20036;-85
2023/07/02 04:53:52;;;;;;;2.38;1.33;;;20.80;72.10;;;;;;5075119;28;20036;-81
2023/07/02 04:56:18;;;;;;;0.35;0.30;;;20.80;72.80;;;;;;5074891;28;20036;-86
2023/07/02 04:58:44;;;;;;;;;;;20.80;72.70;;;;;;5076970;28;20116;-85
2023/07/02 05:01:10;;;;;;;1.60;0.82;;;20.80;72.60;;;;;;5097198;28;20006;-86
2023/07/02 05:03:38;;;;;;;;;;;20.90;72.20;;;;;;5079864;28;20036;-82
2023/07/02 05:06:04;;;;;;;1.45;1.20;;;21.00;72.00;;;;;;5095792;28;20299;-83
2023/07/02 05:08:30;;;;;;;;;;;21.00;71.50;;;;;;5096701;28;20040;-83
2023/07/02 05:10:56;;;;;;;0.55;0.40;;;21.10;71.20;;;;;;5078445;28;19923;-82
2023/07/02 05:13:21;;;;;;;;;;;21.10;71.30;;;;;;5097785;28;20036;-82
2023/07/02 05:15:48;;;;;;;1.05;0.40;;;21.20;71.30;;;;;;5095504;28;19916;-84
2023/07/02 05:18:14;;;;;;;1.08;0.50;;;21.30;70.90;;;;;;5095918;28;20060;-84
2023/07/02 05:20:41;;;;;;;;;;;21.40;70.60;;;;;;5096022;28;20106;-84
2023/07/02 05:23:07;;;;;;;2.08;0.90;;;21.50;70.90;;;;;;5095825;28;19923;-83
2023/07/02 05:25:33;;;;;;;;;;;21.60;70.40;;;;;;5095542;28;20468;-84
2023/07/02 05:27:59;;;;;;;0.60;0.60;;;21.60;70.70;;;;;;5079199;28;19961;-83
2023/07/02 05:30:25;;;;;;;0.90;0.80;;;21.60;70.10;;;;;;5078224;28;20035;-84
2023/07/02 05:32:51;;;;;;;;;;;21.60;70.40;;;;;;5096266;28;20414;-84
2023/07/02 05:35:17;;;;;;;2.13;0.45;;;21.60;70.90;;;;;;5095555;28;19950;-85
2023/07/02 05:37:45;;;;;;;;;;;21.60;70.60;;;;;;5096524;28;20039;-85
2023/07/02 05:40:11;;;;;;;1.58;1.48;;;21.60;70.90;;;;;;5095222;28;19916;-85
2023/07/02 05:42:37;;;;;;;0.85;0.63;;;21.60;70.60;;;;;;5078755;28;20102;-84
2023/07/02 05:45:04;;;;;;;1.83;1.50;;;21.60;70.70;;;;;;5095677;28;20032;-86
2023/07/02 05:47:30;;;;;;;1.33;0.52;;;21.50;70.30;;;;;;5078534;28;20081;-85
2023/07/02 05:49:56;;;;;;;;;;;21.50;71.00;;;;;;5079607;28;20024;-85
2023/07/02 05:52:22;;;;;;;1.65;1.33;;;21.40;71.10;;;;;;5078600;28;20010;-85
2023/07/02 05:54:48;;;;;;;1.50;0.88;;;21.40;70.90;;;;;;5078652;28;20032;-86
2023/07/02 05:57:14;;;;;;;;;;;21.50;71.00;;;;;;5096731;28;20039;-85
2023/07/02 05:59:40;;;;;;;1.10;0.75;;;21.50;71.10;;;;;;5078610;28;20369;-85
2023/07/02 06:02:06;;;;;;;;;;;21.50;70.90;;;;;;5095810;28;20036;-86
2023/07/02 06:04:32;;;;;;;4.18;0.73;;;21.60;70.90;;;;;;5096603;28;20313;-87
2023/07/02 06:06:58;;;;;;;;;;;21.60;70.60;;;;;;5078859;28;20455;-85
2023/07/02 06:09:24;;;;;;;2.30;1.60;;;21.70;70.90;;;;;;5078034;28;19927;-85
2023/07/02 06:11:50;;;;;;;;;;;21.70;70.80;;;;;;5078717;28;20477;-87
2023/07/02 06:14:16;;;;;;;1.57;1.10;;;21.80;70.30;;;;;;5078458;28;19968;-87
2023/07/02 06:16:42;;;;;;;;;;;21.70;70.60;;;;;;5096880;28;20036;-87
2023/07/02 06:19:08;;;;;;;1.45;0.93;;;21.70;70.60;;;;;;5096319;28;19923;-87
2023/07/02 06:21:34;;;;;;;;;;;21.70;70.70;;;;;;5095861;28;20488;-85
2023/07/02 06:24:01;;;;;;;3.08;1.30;;;21.70;70.90;;;;;;5095043;28;19962;-87
2023/07/02 06:26:28;;;;;;;1.25;0.77;;;21.70;70.80;;;;;;5078011;28;20393;-87
2023/07/02 06:28:54;;;;;;;;;;;21.70;71.10;;;;;;5078820;28;20039;-85
2023/07/02 06:31:20;;;;;;;1.75;0.43;;;21.70;71.30;;;;;;5094741;28;19916;-86
2023/07/02 06:33:46;;;;;;;;;;;21.90;70.50;;;;;;5078509;28;20500;-87
2023/07/02 06:36:14;;;;;;;0.68;0.43;;;22.10;70.10;;;;;;5094375;28;19981;-87
2023/07/02 06:38:40;;;;;;;1.35;1.00;;;22.20;69.90;;;;;;5078312;28;20124;-85
2023/07/02 06:41:06;;;;;;;0.60;0.60;;;22.30;68.80;;;;;;5094650;28;20039;-87
2023/07/02 06:43:32;;;;;;;;;;;22.60;68.60;;;;;;5095427;28;20132;-86
2023/07/02 06:45:58;;;;;;;0.90;0.47;;;22.80;68.60;;;;;;5094426;28;19912;-85
2023/07/02 06:48:24;;;;;;;;;;;22.90;67.90;;;;;;5095187;28;20153;-85
2023/07/02 06:50:50;;;;;;;1.60;1.00;;;22.90;68.30;;;;;;5094334;28;20008;-85
2023/07/02 06:53:16;;;;;;;;;;;23.00;68.30;;;;;;5095206;28;20036;-86
2023/07/02 06:55:42;;;;;;;1.10;0.52;;;23.10;67.50;;;;;;5093935;28;20357;-86
2023/07/02 06:58:09;;;;;;;;;;;23.00;67.20;;;;;;5078592;28;20040;-85
2023/07/02 07:00:36;;;;;;;0.47;0.47;;;23.10;67.00;;;;;;5093921;28;19974;-85
2023/07/02 07:03:21;;;;;;;0.47;0.47;;;23.30;67.00;;;;;;5094506;28;20037;-87
2023/07/02 07:05:47;;;;;;;1.88;1.02;;;23.30;66.30;;;;;;5093779;28;20024;-86
2023/07/02 07:08:13;;;;;;;2.00;0.88;;;23.30;65.80;;;;;;5077346;28;20024;-83
2023/07/02 07:10:40;;;;;;;3.65;0.73;;;23.50;66.40;;;;;;5076397;28;20055;-84
2023/07/02 07:13:06;;;;;;;1.38;0.75;;;23.60;65.70;;;;;;5077254;28;20028;-84
2023/07/02 07:15:34;;;;;;;1.15;0.65;;;23.80;65.10;;;;;;5076573;28;20043;-88
2023/07/02 07:18:01;;;;;;;0.77;0.50;;;23.90;64.60;;;;;;5094495;28;20039;-88
2023/07/02 07:20:27;;;;;;;2.83;1.45;;;24.00;64.10;;;;;;5093736;28;20066;-83
2023/07/02 07:22:54;;;;;;;1.42;1.27;;;24.00;64.40;;;;;;5094588;28;20043;-83
2023/07/02 07:25:20;;;;;;;1.40;0.93;;;24.10;64.40;;;;;;5076378;28;20074;-84
2023/07/02 07:27:46;;;;;;;2.35;1.27;;;24.20;63.90;;;;;;5093933;28;20078;-86
2023/07/02 07:30:14;;;;;;;0.77;0.73;;;24.20;63.30;;;;;;5076424;28;20122;-84
2023/07/02 07:32:41;;;;;;;1.25;0.55;;;24.20;63.10;;;;;;5094583;28;20024;-82
2023/07/02 07:35:08;;;;;;;2.60;1.05;;;24.20;61.60;;;;;;5077917;28;20024;-83
2023/07/02 07:37:34;;;;;;;0.57;0.50;;;24.30;62.10;;;;;;5093595;28;20059;-87
2023/07/02 07:40:00;;;;;;;1.92;0.80;;;24.40;62.10;;;;;;5093237;28;20405;-90
2023/07/02 07:42:25;;;;;;;;;;;24.50;62.10;;;;;;5076753;28;20035;-83
2023/07/02 07:44:52;;;;;;;0.63;0.63;;;24.70;62.40;;;;;;5094646;28;19965;-88
2023/07/02 07:47:18;;;;;;;0.93;0.70;;;24.80;61.70;;;;;;5094753;28;20081;-82
2023/07/02 07:49:46;;;;;;;0.40;0.40;;;24.90;60.80;;;;;;5106732;28;20491;-83
2023/07/02 07:52:12;;;;;;;0.30;0.30;;;25.00;61.10;;;;;;5096330;28;20035;-82
2023/07/02 07:54:38;;;;;;;1.25;0.63;;;25.20;61.20;;;;;;5113218;28;20492;-82
2023/07/02 07:57:05;;;;;;;;;;;25.20;60.30;;;;;;5111656;28;20036;-87
2023/07/02 07:59:31;;;;;;;2.55;0.82;;;25.30;60.50;;;;;;5113403;28;19920;-88
2023/07/02 08:01:57;;;;;;;1.02;0.55;;;25.40;60.60;;;;;;5112888;28;20480;-89
2023/07/02 08:04:23;;;;;;;0.55;0.45;;;25.40;59.50;;;;;;5096459;28;20032;-88
2023/07/02 08:06:49;;;;;;;1.20;0.80;;;25.50;59.10;;;;;;5111950;28;20039;-84
2023/07/02 08:09:16;;;;;;;2.70;1.02;;;25.50;58.60;;;;;;5112516;28;20119;-87
2023/07/02 08:11:42;;;;;;;1.88;1.23;;;25.50;57.50;;;;;;5111950;28;20568;-90
2023/07/02 08:14:08;;;;;;;1.60;1.20;;;25.60;58.40;;;;;;5112843;28;20057;-86
2023/07/02 08:16:34;;;;;;;1.45;1.08;;;25.70;57.90;;;;;;5095769;28;20081;-81
2023/07/02 08:19:01;;;;;;;0.90;0.55;;;25.80;57.80;;;;;;5095637;28;20369;-86
2023/07/02 08:21:27;;;;;;;1.45;0.98;;;26.00;58.00;;;;;;5113725;28;20539;-85
2023/07/02 08:23:53;;;;;;;1.10;0.82;;;26.10;57.90;;;;;;5112417;28;20042;-84
2023/07/02 08:26:19;;;;;;;1.23;0.70;;;26.10;57.00;;;;;;5112184;28;20422;-87
2023/07/02 08:28:45;;;;;;;1.77;0.85;;;26.10;57.10;;;;;;5112377;28;20492;-81
2023/07/02 08:31:11;;;;;;;1.08;0.80;;;26.20;56.30;;;;;;5094794;28;20059;-81
2023/07/02 08:33:38;;;;;;;1.38;1.23;;;26.20;56.90;;;;;;5111469;28;20043;-86
2023/07/02 08:36:04;;;;;;;2.17;1.42;;;26.20;56.30;;;;;;5094997;28;20028;-83
2023/07/02 08:38:30;;;;;;;1.20;0.88;;;26.30;56.20;;;;;;5095184;28;20485;-78
2023/07/02 08:40:57;;;;;;;4.20;1.60;;;26.30;57.00;;;;;;5094862;28;20039;-86
2023/07/02 08:43:26;;;;;;;0.38;0.32;;;26.30;56.30;;;;;;5112627;28;20071;-85
2023/07/02 08:45:53;;;;;;;1.15;0.93;;;26.40;54.60;;;;;;5094818;28;20037;-79
2023/07/02 08:48:23;;;;;;;1.58;1.35;;;26.50;54.50;;;;;;5095263;28;20127;-85
2023/07/02 08:50:50;;;;;;;0.50;0.50;;;26.60;54.70;;;;;;5113271;28;20465;-79
2023/07/02 08:53:16;;;;;;;1.33;0.88;;;26.70;54.40;;;;;;5112404;28;20059;-85
2023/07/02 08:55:42;;;;;;;1.75;1.08;;;26.90;54.40;;;;;;5094648;28;20032;-80
2023/07/02 08:58:09;;;;;;;1.40;1.00;;;27.00;55.20;;;;;;5113830;28;20046;-81
2023/07/02 09:00:36;;;;;;;1.02;0.65;;;27.10;55.10;;;;;;5094511;28;20075;-82
2023/07/02 09:03:21;;;;;;;0.82;0.70;;;27.20;51.20;;;;;;5095621;28;20442;-85
2023/07/02 09:06:07;;;;;;;3.10;2.28;;;27.10;50.90;;;;;;5111347;28;20096;-80
2023/07/02 09:08:34;;;;;;;1.23;1.02;;;27.20;51.60;;;;;;5112010;28;20097;-84
2023/07/02 09:11:09;;;;;;;1.95;1.33;;;27.30;51.40;;;;;;5111518;28;20078;-84
2023/07/02 09:13:58;;;;;;;0.73;0.73;;;27.40;51.00;;;;;;5095067;28;20130;-79
2023/07/02 09:16:28;;;;;;;0.50;0.50;;;27.50;51.40;;;;;;5111202;28;20480;-82
2023/07/02 09:19:13;;;;;;;1.35;1.08;;;27.60;50.00;;;;;;5095003;28;20118;-83
2023/07/02 09:22:02;;;;;;;2.53;0.88;;;27.60;50.40;;;;;;5111609;28;20024;-82
2023/07/02 09:24:31;;;;;;;0.85;0.63;;;27.70;49.60;;;;;;5111739;28;20035;-82
2023/07/02 09:27:17;;;;;;;0.90;0.68;;;27.80;49.30;;;;;;5111557;28;20063;-84
2023/07/02 09:29:54;;;;;;;1.33;0.97;;;28.10;50.20;;;;;;5083555;28;20055;-84
2023/07/02 09:32:40;;;;;;;1.05;0.68;;;28.50;47.30;;;;;;5075656;28;20047;-85
2023/07/02 09:35:07;;;;;;;1.73;1.23;;;28.80;47.00;;;;;;5085082;28;20035;-86
2023/07/02 09:37:33;;;;;;;1.45;1.05;;;29.10;46.60;;;;;;5085607;28;20036;-83
2023/07/02 09:40:01;;;;;;;0.50;0.35;;;29.40;45.30;;;;;;5086096;28;20050;-83
2023/07/02 09:42:29;;;;;;;0.90;0.57;;;29.70;42.70;;;;;;5085792;28;20034;-83
2023/07/02 09:44:58;;;;;;;1.63;1.00;;;30.50;42.50;;;;;;5070189;28;20074;-83
2023/07/02 09:47:26;;;;;;;0.63;0.57;;;31.20;39.00;;;;;;5088782;28;20043;-82
2023/07/02 09:50:11;;;;;;;1.45;0.70;;;31.80;39.00;;;;;;5072665;28;20032;-84
2023/07/02 09:52:38;;;;;;;0.95;0.77;;;32.80;37.50;;;;;;5072151;28;20032;-83
2023/07/02 09:55:07;;;;;;;1.10;0.52;;;33.50;34.00;;;;;;5102960;28;20235;-84
2023/07/02 09:57:33;;;;;;;2.53;1.55;;;34.30;35.20;;;;;;5110938;27;20046;-84
2023/07/02 10:00:01;;;;;;;0.93;0.60;;;35.10;32.70;;;;;;5092654;28;20024;-83
2023/07/02 10:02:30;;;;;;;1.08;1.00;;;35.90;32.00;;;;;;5092221;28;20048;-84
2023/07/02 10:04:56;;;;;;;1.55;1.38;;;36.70;31.20;;;;;;5092037;28;20028;-81
2023/07/02 10:07:41;;;;;;;1.23;1.00;;;37.50;31.40;;;;;;5109480;28;20059;-85
2023/07/02 10:10:08;;;;;;;1.00;0.63;;;38.40;29.40;;;;;;5083343;28;20040;-83
2023/07/02 10:12:34;;;;;;;0.95;0.80;;;39.10;27.70;;;;;;5071733;28;20028;-82
2023/07/02 10:15:00;;;;;;;5.88;1.45;;;39.60;25.60;;;;;;5089403;28;20030;-81
2023/07/02 10:18:14;;;;;;;1.80;0.82;;;39.50;26.20;;;;;;5088528;28;20399;-80
2023/07/02 10:20:41;;;;;;;2.72;1.70;;;40.40;26.80;;;;;;5087566;28;20028;-82
2023/07/02 10:23:09;;;;;;;1.25;0.95;;;40.90;24.40;;;;;;5088377;28;20042;-82
2023/07/02 10:25:38;;;;;;;1.92;1.25;;;41.20;22.70;;;;;;5070425;28;20494;-80
2023/07/02 10:28:26;;;;;;;1.55;1.45;;;41.50;22.70;;;;;;5087968;28;20093;-80
2023/07/02 10:30:53;;;;;;;2.60;1.95;;;41.70;22.00;;;;;;5087885;28;20039;-81
2023/07/02 10:33:20;;;;;;;3.67;1.20;;;42.10;22.40;;;;;;5089424;28;20056;-80
2023/07/02 10:35:49;;;;;;;1.17;0.88;;;42.20;21.60;;;;;;5070846;28;20123;-81
2023/07/02 10:38:34;;;;;;;0.70;0.70;;;42.50;21.70;;;;;;5071521;28;20039;-80
2023/07/02 10:41:00;;;;;;;2.13;1.63;;;42.80;21.50;;;;;;5087552;28;20137;-80
2023/07/02 10:43:28;;;;;;;1.10;0.95;;;43.10;22.30;;;;;;5087691;28;20048;-79
2023/07/02 10:45:55;;;;;;;0.70;0.70;;;44.00;21.00;;;;;;5070290;28;20032;-79
2023/07/02 10:48:21;;;;;;;1.73;1.13;;;44.50;20.30;;;;;;5070951;28;20466;-81
2023/07/02 10:50:47;;;;;;;2.65;1.75;;;45.20;20.10;;;;;;5086820;28;20028;-79
2023/07/02 10:53:32;;;;;;;1.85;1.63;;;46.00;19.50;;;;;;5087750;28;20043;-82
2023/07/02 10:55:59;;;;;;;2.00;1.35;;;46.70;19.50;;;;;;5086555;28;20123;-80
2023/07/02 10:58:25;;;;;;;1.38;1.23;;;47.20;18.40;;;;;;5070901;28;20093;-82
2023/07/02 11:00:52;;;;;;;2.63;2.05;;;47.50;17.50;;;;;;5087011;28;20028;-81
2023/07/02 11:03:20;;;;;;;1.90;1.58;;;47.70;17.20;;;;;;5070960;28;20040;-82
2023/07/02 11:05:47;;;;;;;1.75;1.35;;;47.90;16.10;;;;;;5086721;28;20032;-80
2023/07/02 11:08:13;;;;;;;1.67;1.40;;;48.10;16.30;;;;;;5087071;28;20055;-80
2023/07/02 11:10:40;;;;;;;2.13;1.50;;;48.60;17.10;;;;;;5069499;28;20095;-81
2023/07/02 11:13:13;;;;;;;1.55;1.30;;;48.80;16.00;;;;;;5087330;28;20032;-82
2023/07/02 11:15:41;;;;;;;2.65;2.20;;;49.30;16.90;;;;;;5086536;28;20087;-80
2023/07/02 11:18:30;;;;;;;1.48;1.30;;;49.50;15.40;;;;;;5088793;28;20601;-81
2023/07/02 11:20:56;;;;;;;1.40;1.30;;;50.10;15.10;;;;;;5086550;28;20059;-81
2023/07/02 11:23:26;;;;;;;2.75;2.15;;;49.80;15.10;;;;;;5070487;28;20047;-81
2023/07/02 11:26:11;;;;;;;2.28;1.90;;;49.90;15.00;;;;;;5070015;28;20051;-80
2023/07/02 11:28:50;;;;;;;1.80;1.60;;;49.60;15.70;;;;;;5087939;28;20036;-81
2023/07/02 11:31:26;;;;;;;1.85;1.40;;;47.70;16.30;;;;;;5069547;28;20032;-79
2023/07/02 11:33:52;;;;;;;3.13;1.95;;;46.00;17.50;;;;;;5086690;28;20745;-80
2023/07/02 11:36:36;;;;;;;3.20;1.48;;;46.70;16.70;;;;;;5087773;28;20468;-79
2023/07/02 11:39:03;;;;;;;1.38;1.30;;;47.20;16.00;;;;;;5070458;28;20036;-81
2023/07/02 11:41:57;;;;;;;1.50;1.25;;;47.70;15.00;;;;;;5086266;28;20388;-80
2023/07/02 11:44:24;;;;;;;2.70;2.23;;;47.70;15.40;;;;;;5086608;28;20047;-81
2023/07/02 11:46:50;;;;;;;1.85;1.20;;;47.80;15.30;;;;;;5087885;28;20450;-81
2023/07/02 11:49:16;;;;;;;2.60;1.40;;;48.80;15.30;;;;;;5069428;28;20032;-80
2023/07/02 11:51:48;;;;;;;1.67;1.58;;;49.40;13.90;;;;;;5087647;28;20047;-79
2023/07/02 11:54:15;;;;;;;2.40;1.40;;;49.10;14.40;;;;;;5086646;28;20476;-80
2023/07/02 11:56:42;;;;;;;1.63;1.52;;;50.00;14.90;;;;;;5086225;28;20118;-81
2023/07/02 11:59:09;;;;;;;2.08;1.70;;;50.70;13.30;;;;;;5086789;28;20089;-81
2023/07/02 12:01:35;;;;;;;1.85;1.65;;;51.50;14.00;;;;;;5085991;28;20038;-80
2023/07/02 12:04:01;;;;;;;2.70;1.85;;;52.20;14.00;;;;;;5086480;28;20115;-81
2023/07/02 12:06:27;;;;;;;1.77;1.50;;;51.80;12.80;;;;;;5086074;28;20036;-80
2023/07/02 12:08:53;;;;;;;2.85;2.13;;;49.90;14.40;;;;;;5085904;28;20044;-80
2023/07/02 12:11:19;;;;;;;1.67;1.42;;;50.30;13.90;;;;;;5068550;28;20512;-81
2023/07/02 12:13:46;;;;;;;2.08;1.65;;;50.90;13.60;;;;;;5085960;28;20085;-78
2023/07/02 12:16:12;;;;;;;2.97;2.45;;;51.50;13.70;;;;;;5068587;28;20040;-80
2023/07/02 12:18:38;;;;;;;1.55;1.40;;;51.60;12.80;;;;;;5086453;28;20028;-78
2023/07/02 12:21:04;;;;;;;2.38;1.95;;;51.20;12.30;;;;;;5085705;28;20032;-80
2023/07/02 12:23:30;;;;;;;2.72;2.53;;;50.90;13.10;;;;;;5085825;28;20039;-81
2023/07/02 12:25:56;;;;;;;2.60;2.17;;;51.40;13.40;;;;;;5086928;28;20036;-80
2023/07/02 12:28:22;;;;;;;2.60;2.22;;;51.40;12.80;;;;;;5069396;28;20055;-82
2023/07/02 12:30:49;;;;;;;3.20;1.95;;;51.40;13.30;;;;;;5068366;28;20031;-78
2023/07/02 12:33:15;;;;;;;2.35;2.15;;;51.80;11.90;;;;;;5085826;28;20458;-78
2023/07/02 12:35:41;;;;;;;2.47;1.92;;;51.50;12.30;;;;;;5087070;28;20070;-80
2023/07/02 12:38:08;;;;;;;2.35;2.00;;;51.40;12.60;;;;;;5086952;28;20119;-79
2023/07/02 12:40:34;;;;;;;2.70;1.70;;;51.70;12.70;;;;;;5068446;28;20055;-80
2023/07/02 12:43:00;;;;;;;2.72;2.15;;;51.80;12.60;;;;;;5085804;28;20037;-81
2023/07/02 12:45:26;;;;;;;2.47;2.22;;;51.70;12.40;;;;;;5068534;28;20662;-80
2023/07/02 12:47:52;;;;;;;2.42;2.22;;;51.70;12.80;;;;;;5087036;28;20461;-78
2023/07/02 12:50:19;;;;;;;1.95;1.58;;;51.80;12.70;;;;;;5086367;28;20044;-78
2023/07/02 12:52:45;;;;;;;2.33;2.13;;;51.90;13.20;;;;;;5086839;28;20054;-78
2023/07/02 12:55:11;;;;;;;2.10;1.58;;;51.60;12.40;;;;;;5084795;28;20028;-78
2023/07/02 12:57:38;;;;;;;1.50;1.40;;;50.60;12.40;;;;;;5085752;28;20409;-78
2023/07/02 13:02:51;;;;;;;3.63;1.38;;;50.10;13.50;;;;;;5086917;28;20102;-80
2023/07/02 13:05:17;;;;;;;2.88;1.50;;;49.80;13.90;;;;;;5085291;28;20024;-79
2023/07/02 13:07:43;;;;;;;1.65;1.42;;;49.20;15.00;;;;;;5085753;28;20040;-79
2023/07/02 13:10:09;;;;;;;8.55;1.63;;;48.50;15.70;;;;;;5084860;28;20087;-79
2023/07/02 13:12:36;;;;;;;2.88;1.42;;;47.50;15.80;;;;;;5085579;28;20068;-79
2023/07/02 13:15:02;;;;;;;2.58;1.08;;;45.50;16.80;;;;;;5085189;28;20082;-79